Nearby METeorological Aerodrome Reports (METAR)

 

METARs typically come from airports or permanent weather observation stations and are predominantly used by pilots and meteorologists. A typical METAR contains data for the temperature, dew point, wind direction and speed, precipitation, cloud cover and heights, visibility, and barometric pressure. A METAR may also contain information on precipitation amounts, lightning, and other information that would be of interest to pilots or meteorologists. A short period forecast called a TREND may be added at the end of the METAR covering likely changes in weather conditions in the two hours following the observation.

KHWD - Hayward, California, USA
Distance from station: SW 4km
Updated: Sun, 16-Jun-2024 5:54pm PDT
Clear
Clear
 Wind from W
Wind: W 26 km/h, Gust: 37 km/h
Temperature: 20°C
Dew Point: 8°C
Humidity: 46%
Barometer: 1011.2 hPa
Clouds: Clear
Visibility: 16 km
2024/06/17 00:54 KHWD 170054Z 27014G20KT 10SM CLR 20/08 A2986 RMK AO2 SLP118 T02000078
KOAK - Oakland, California, USA
Distance from station: W 13km
Updated: Sun, 16-Jun-2024 5:53pm PDT
Few Clouds
Few Clouds
 Wind from WNW
Wind: WNW 28 km/h, Gust: 59 km/h
Temperature: 21°C
Dew Point: 7°C
Humidity: 40%
Barometer: 1010.5 hPa
Clouds: Few Clouds
Visibility: 16 km
Cloud details: Few Clouds 6096 m
2024/06/17 00:53 KOAK 170053Z 29015G32KT 10SM FEW200 21/07 A2984 RMK AO2 PK WND 28032/0046 SLP106 T02110067
 
KLVK - Livermore, California, USA
Distance from station: E 24km
Updated: Sun, 16-Jun-2024 6:02pm PDT
Clear
Clear
 Wind from SSW
Wind: SSW 19 km/h
Temperature: 24°C
Dew Point: 6°C
Humidity: 31%
Barometer: 1009.8 hPa
Clouds: Clear
Visibility: 16 km
2024/06/17 01:02 KLVK 170102Z 21010KT 10SM CLR 24/06 A2982 RMK AO2 WSHFT 0042 T02440061
KSQL - San Carlos Airpo, California, USA
Distance from station: SW 24km
Updated: Sun, 16-Jun-2024 5:47pm PDT
Clear
Clear
 Wind from W
Wind: W 39 km/h, Gust: 59 km/h
Temperature: 21°C
Dew Point: 0°C
Humidity: 25%
Barometer: 1011.2 hPa
Clouds: Clear
Visibility: 16 km
2024/06/17 00:47 KSQL 170047Z 28021G32KT 10SM CLR 21/00 A2986
 
KPAO - Palo Alto, California, USA
Distance from station: S 25km
Updated: Sun, 16-Jun-2024 5:47pm PDT
Clear
Clear
 Wind from WNW
Wind: WNW 37 km/h, Gust: 54 km/h
Temperature: 22°C
Dew Point: 1°C
Humidity: 25%
Barometer: 1010.8 hPa
Clouds: Clear
Visibility: 16 km
2024/06/17 00:47 KPAO 170047Z 30020G29KT 10SM SKC 22/01 A2985
KSFO - San Francisco, California, USA
Distance from station: WSW 26km
Updated: Sun, 16-Jun-2024 5:56pm PDT
Few Clouds
Few Clouds
 Wind from W
Wind: W 57 km/h, Gust: 74 km/h
Temperature: 17°C
Dew Point: 4°C
Humidity: 42%
Barometer: 1010.5 hPa
Clouds: Few Clouds
Visibility: 16 km
Cloud details: Few Clouds 6096 m
2024/06/17 00:56 KSFO 170056Z 28031G40KT 10SM FEW200 17/04 A2984 RMK AO2 PK WND 27043/0039 SLP106 T01720044
 
KNUQ - Moffett Nas/Mtn, California, USA
Distance from station: S 33km
Updated: Sun, 16-Jun-2024 6:15pm PDT
Clear
Clear
 Wind from NW
Wind: NW 20 km/h, Gust: 33 km/h
Temperature: 23°C
Dew Point: 3°C
Humidity: 27%
Barometer: 1011.2 hPa
Clouds: Clear
Visibility: 14 km
2024/06/17 01:15 KNUQ 170115Z AUTO 32011G18KT 280V340 9SM CLR 23/03 A2986 RMK AO2
KCCR - Concord, California, USA
Distance from station: N 34km
Updated: Sun, 16-Jun-2024 5:53pm PDT
Clear
Clear
 Wind from W
Wind: W 20 km/h, Gust: 37 km/h
Temperature: 27°C
Dew Point: 4°C
Humidity: 23%
Barometer: 1009.1 hPa
Clouds: Clear
Visibility: 16 km
2024/06/17 00:53 KCCR 170053Z 27011G20KT 10SM CLR 27/04 A2980 RMK AO2 SLP077 T02720039
 
KSJC - San Jose, California, USA
Distance from station: SSE 39km
Updated: Sun, 16-Jun-2024 5:53pm PDT
Few Clouds
Few Clouds
 Wind from NNW
Wind: NNW 28 km/h, Gust: 41 km/h
Temperature: 24°C
Dew Point: 6°C
Humidity: 31%
Barometer: 1010.8 hPa
Clouds: Few Clouds
Visibility: 16 km
Cloud details: Few Clouds 3048 m
2024/06/17 00:53 KSJC 170053Z 34015G22KT 10SM FEW100 24/06 A2985 RMK AO2 PK WND 33026/0023 SLP108 T02390056
KHAF - Half Moon Bay, California, USA
Distance from station: WSW 41km
Updated: Sun, 16-Jun-2024 6:35pm PDT
Haze
Haze
 Wind from N
Wind: N 30 km/h, Gust: 48 km/h
Temperature: 14°C
Dew Point: 9°C
Humidity: 72%
Barometer: 1013.2 hPa
Summary: Haze
Visibility: 10 km
2024/06/17 01:35 KHAF 170135Z AUTO 36016G26KT 6SM HZ 14/09 A2992 RMK AO2
 
KC83 - Byron, California, USA
Distance from station: ENE 43km
Updated: Sun, 16-Jun-2024 6:35pm PDT
Clear
Clear
 Wind from WSW
Wind: WSW 41 km/h
Temperature: 27°C
Dew Point: 5°C
Humidity: 24%
Barometer: 1007.8 hPa
Clouds: Clear
Visibility: 16 km
2024/06/17 01:35 KC83 170135Z AUTO 24022KT 10SM CLR 27/05 A2976 RMK AO2
KRHV - San Jose/Reid, California, USA
Distance from station: SSE 48km
Updated: Sun, 16-Jun-2024 5:47pm PDT
Clear
Clear
 Wind from NNW
Wind: NNW 24 km/h, Gust: 37 km/h
Temperature: 23°C
Dew Point: 4°C
Humidity: 29%
Barometer: 1011.2 hPa
Clouds: Clear
Visibility: 16 km
2024/06/17 00:47 KRHV 170047Z 34013G20KT 10SM SKC 23/04 A2986
 
KTCY - Tracy, California, USA
Distance from station: E 57km
Updated: Sun, 16-Jun-2024 6:15pm PDT
Clear
Clear
 Wind from W
Wind: W 30 km/h, Gust: 39 km/h
Temperature: 29°C
Dew Point: 3°C
Humidity: 19%
Barometer: 1007.8 hPa
Clouds: Clear
Visibility: 16 km
2024/06/17 01:15 KTCY 170115Z AUTO 27016G21KT 10SM CLR 29/03 A2976 RMK A01
KAPC - Napa, California, USA
Distance from station: NNW 59km
Updated: Sun, 16-Jun-2024 5:54pm PDT
Smoke, Clear
Smoke, Clear
 Wind from WSW
Wind: WSW 37 km/h, Gust: 50 km/h
Temperature: 24°C
Dew Point: 7°C
Humidity: 34%
Barometer: 1008.5 hPa
Summary: Smoke
Clouds: Clear
Visibility: 16 km
2024/06/17 00:54 KAPC 170054Z 25020G27KT 10SM FU CLR 24/07 A2978 RMK AO2 PK WND 24027/0036 SLP076 T02440067
 
KDVO - Novato/Gnoss Fld, California, USA
Distance from station: NW 65km
Updated: Sun, 16-Jun-2024 6:15pm PDT
Clear
Clear
 Wind from W
Wind: W 37 km/h, Gust: 48 km/h
Temperature: 24°C
Dew Point: 5°C
Humidity: 29%
Barometer: 1009.1 hPa
Clouds: Clear
Visibility: 16 km
2024/06/17 01:15 KDVO 170115Z AUTO 26020G26KT 10SM CLR 24/05 A2980 RMK AO2
KSUU - Travis Afb/Fairf, California, USA
Distance from station: NNE 65km
Updated: Sun, 16-Jun-2024 5:55pm PDT
Clear
Clear
 Wind from SW
Wind: SW 43 km/h
Temperature: 28°C
Dew Point: 5°C
Humidity: 23%
Barometer: 1006.8 hPa
Clouds: Clear
Visibility: 16 km
2024/06/17 00:55 KSUU 170055Z AUTO 23023KT 10SM CLR 28/05 A2973 RMK AO2 PK WND 23029/32 SLP074 T02830045 $
 
KO69 - Petaluma, California, USA
Distance from station: NW 76km
Updated: Sun, 16-Jun-2024 6:15pm PDT
Clear
Clear
 Wind from W
Wind: W 24 km/h, Gust: 46 km/h
Temperature: 20°C
Dew Point: 4°C
Humidity: 35%
Barometer: 1010.5 hPa
Clouds: Clear
Visibility: 16 km
2024/06/17 01:15 KO69 170115Z AUTO 26013G25KT 10SM CLR 20/04 A2984 RMK A01
KVCB - Vacaville, California, USA
Distance from station: N 78km
Updated: Sun, 16-Jun-2024 5:53pm PDT
Clear
Clear
 Wind from varies
Wind: varies 11 km/h, Gust: 31 km/h
Temperature: 32°C
Dew Point: 7°C
Humidity: 21%
Barometer: 1007.5 hPa
Clouds: Clear
Visibility: 16 km
2024/06/17 00:53 KVCB 170053Z AUTO VRB06G17KT 10SM CLR 32/07 A2975 RMK AO2 SLP071 T03170067
 
KSCK - Stockton, California, USA
Distance from station: ENE 79km
Updated: Sun, 16-Jun-2024 6:14pm PDT
Clear
Clear
 Wind from W
Wind: W 30 km/h
Temperature: 30°C
Dew Point: 6°C
Humidity: 22%
Barometer: 1007.5 hPa
Clouds: Clear
Visibility: 16 km
2024/06/17 01:14 KSCK 170114Z 26016KT 10SM CLR 30/06 A2975 RMK AO2 WSHFT 0054 T03000061
KE16 - San Martin, California, USA
Distance from station: SSE 80km
Updated: Sun, 16-Jun-2024 6:15pm PDT
Clear
Clear
 Wind from NW
Wind: NW 26 km/h, Gust: 41 km/h
Temperature: 24°C
Dew Point: 2°C
Humidity: 24%
Barometer: 1010.8 hPa
Clouds: Clear
Visibility: 16 km
2024/06/17 01:15 KE16 170115Z AUTO 31014G22KT 10SM CLR 24/02 A2985 RMK AO2 PWINO PNO

Alerts


No alerts

Please Read!!

This website is neither affiliated with nor endorsed by the National Weather Service (NWS) or any other government agency. The weather data contained herein is offered without any warranties, express or implied, and is meant for entertainment purposes only. It is not meant to supplement or replace official NWS weather forecasts and information.

Weather events can dramatically change rapidly, so plan ahead and check government sources